Time,TemperatureF,DewpointF,PressureIn,WindDirection,WindDirectionDegrees,WindSpeedMPH,WindSpeedGustMPH,Humidity,HourlyPrecipIn,Conditions,Clouds,dailyrainin,SoftwareType,DateUTC
2013-01-31 06:02:00,32.0,29.0,-100.00,SW,225,8.0,12.0,85,-99.99,,,-99.99,,2013-01-31 14:02:00,
2013-01-31 06:11:00,33.0,29.0,-100.00,SW,225,9.0,13.0,85,-99.99,,,-99.99,,2013-01-31 14:11:00,
2013-01-31 06:21:00,33.0,29.0,-100.00,SW,225,9.0,13.0,85,-99.99,,,-99.99,,2013-01-31 14:21:00,
2013-01-31 06:31:00,32.0,29.0,-100.00,SW,225,12.0,14.0,85,-99.99,,,-99.99,,2013-01-31 14:31:00,
2013-01-31 06:42:00,32.0,28.0,-100.00,SW,225,9.0,14.0,86,-99.99,,,-99.99,,2013-01-31 14:42:00,
2013-01-31 06:52:00,31.0,28.0,-100.00,South,180,7.0,11.0,87,-99.99,,,-99.99,,2013-01-31 14:52:00,
2013-01-31 07:02:00,31.0,28.0,-100.00,South,180,7.0,11.0,87,-99.99,,,-99.99,,2013-01-31 15:02:00,
2013-01-31 07:12:00,31.0,27.0,-100.00,SW,225,8.0,11.0,87,-99.99,,,-99.99,,2013-01-31 15:12:00,
2013-01-31 07:22:00,31.0,27.0,-100.00,SW,225,8.0,11.0,87,-99.99,,,-99.99,,2013-01-31 15:22:00,
2013-01-31 07:32:00,31.0,27.0,-100.00,SW,225,8.0,11.0,87,-99.99,,,-99.99,,2013-01-31 15:32:00,
2013-01-31 07:42:00,31.0,27.0,-100.00,SW,225,8.0,12.0,87,-99.99,,,-99.99,,2013-01-31 15:42:00,
2013-01-31 07:52:00,31.0,27.0,-100.00,SW,225,8.0,12.0,87,-99.99,,,-99.99,,2013-01-31 15:52:00,
2013-01-31 08:03:00,30.0,27.0,-100.00,SW,225,8.0,11.0,87,-99.99,,,-99.99,,2013-01-31 16:03:00,
2013-01-31 08:12:00,30.0,27.0,-100.00,SW,225,8.0,12.0,88,-99.99,,,-99.99,,2013-01-31 16:12:00,
2013-01-31 08:21:00,30.0,27.0,-100.00,SW,225,8.0,12.0,88,-99.99,,,-99.99,,2013-01-31 16:21:00,
2013-01-31 08:32:00,30.0,27.0,-100.00,SW,225,10.0,12.0,88,-99.99,,,-99.99,,2013-01-31 16:32:00,
2013-01-31 08:42:00,30.0,27.0,-100.00,SW,225,11.0,15.0,88,-99.99,,,-99.99,,2013-01-31 16:42:00,
2013-01-31 08:52:00,30.0,27.0,-100.00,SW,225,11.0,15.0,88,-99.99,,,-99.99,,2013-01-31 16:52:00,
2013-01-31 09:02:00,31.0,27.0,-100.00,SW,225,12.0,17.0,87,-99.99,,,-99.99,,2013-01-31 17:02:00,
2013-01-31 09:12:00,32.0,28.0,-100.00,SW,225,11.0,17.0,85,-99.99,,,-99.99,,2013-01-31 17:12:00,
2013-01-31 09:22:00,32.0,28.0,-100.00,SW,225,11.0,17.0,85,-99.99,,,-99.99,,2013-01-31 17:22:00,
2013-01-31 09:32:00,32.0,28.0,-100.00,SW,225,8.0,15.0,82,-99.99,,,-99.99,,2013-01-31 17:32:00,
2013-01-31 09:43:00,32.0,28.0,-100.00,SW,225,8.0,15.0,82,-99.99,,,-99.99,,2013-01-31 17:43:00,
2013-01-31 10:02:00,35.0,28.0,-100.00,SW,225,11.0,13.0,76,-99.99,,,-99.99,,2013-01-31 18:02:00,
2013-01-31 10:12:00,35.0,28.0,-100.00,SW,225,6.0,11.0,76,-99.99,,,-99.99,,2013-01-31 18:12:00,
2013-01-31 10:21:00,35.0,28.0,-100.00,SW,225,6.0,11.0,76,-99.99,,,-99.99,,2013-01-31 18:21:00,
2013-01-31 10:32:00,35.0,28.0,-100.00,SW,225,8.0,12.0,75,-99.99,,,-99.99,,2013-01-31 18:32:00,
2013-01-31 10:42:00,36.0,29.0,-100.00,SW,225,8.0,11.0,75,-99.99,,,-99.99,,2013-01-31 18:42:00,
2013-01-31 10:52:00,36.0,29.0,-100.00,SW,225,8.0,11.0,75,-99.99,,,-99.99,,2013-01-31 18:52:00,
2013-01-31 11:02:00,38.0,29.0,-100.00,SW,225,6.0,11.0,72,-99.99,,,-99.99,,2013-01-31 19:02:00,
2013-01-31 11:11:00,38.0,29.0,-100.00,SW,225,10.0,12.0,69,-99.99,,,-99.99,,2013-01-31 19:11:00,
2013-01-31 11:21:00,38.0,29.0,-100.00,SW,225,10.0,12.0,69,-99.99,,,-99.99,,2013-01-31 19:21:00,
2013-01-31 11:32:00,40.0,29.0,-100.00,South,180,6.0,12.0,66,-99.99,,,-99.99,,2013-01-31 19:32:00,
2013-01-31 11:42:00,40.0,29.0,-100.00,SW,225,9.0,15.0,65,-99.99,,,-99.99,,2013-01-31 19:42:00,
2013-01-31 11:52:00,40.0,29.0,-100.00,SW,225,9.0,15.0,65,-99.99,,,-99.99,,2013-01-31 19:52:00,
2013-01-31 12:02:00,41.0,30.0,-100.00,SW,225,11.0,16.0,63,-99.99,,,-99.99,,2013-01-31 20:02:00,
2013-01-31 12:11:00,42.0,29.0,-100.00,SW,225,12.0,17.0,61,-99.99,,,-99.99,,2013-01-31 20:11:00,
2013-01-31 12:21:00,42.0,29.0,-100.00,SW,225,12.0,17.0,61,-99.99,,,-99.99,,2013-01-31 20:21:00,
2013-01-31 12:31:00,43.0,29.0,-100.00,SW,225,8.0,13.0,57,-99.99,,,-99.99,,2013-01-31 20:31:00,
2013-01-31 12:42:00,45.0,29.0,-100.00,SW,225,6.0,12.0,54,-99.99,,,-99.99,,2013-01-31 20:42:00,
2013-01-31 12:52:00,45.0,29.0,-100.00,SW,225,6.0,12.0,54,-99.99,,,-99.99,,2013-01-31 20:52:00,
2013-01-31 13:02:00,45.0,29.0,-100.00,SW,225,7.0,12.0,53,-99.99,,,-99.99,,2013-01-31 21:02:00,
2013-01-31 13:12:00,46.0,29.0,-100.00,SW,225,6.0,8.0,50,-99.99,,,-99.99,,2013-01-31 21:12:00,
2013-01-31 13:21:00,46.0,29.0,-100.00,SW,225,6.0,8.0,50,-99.99,,,-99.99,,2013-01-31 21:21:00,
2013-01-31 13:31:00,48.0,29.0,-100.00,South,180,3.0,6.0,48,-99.99,,,-99.99,,2013-01-31 21:31:00,
2013-01-31 13:42:00,48.0,29.0,-100.00,North,0,2.0,6.0,46,-99.99,,,-99.99,,2013-01-31 21:42:00,
2013-01-31 13:52:00,48.0,29.0,-100.00,North,0,2.0,6.0,46,-99.99,,,-99.99,,2013-01-31 21:52:00,
2013-01-31 14:02:00,48.0,29.0,-100.00,North,0,6.0,9.0,47,-99.99,,,-99.99,,2013-01-31 22:02:00,
2013-01-31 14:11:00,47.0,28.0,-100.00,NW,315,5.0,8.0,47,-99.99,,,-99.99,,2013-01-31 22:11:00,
2013-01-31 14:22:00,47.0,28.0,-100.00,NW,315,5.0,8.0,47,-99.99,,,-99.99,,2013-01-31 22:22:00,
2013-01-31 14:32:00,47.0,28.0,-100.00,North,0,5.0,10.0,47,-99.99,,,-99.99,,2013-01-31 22:32:00,
2013-01-31 14:42:00,47.0,28.0,-100.00,North,0,4.0,10.0,48,-99.99,,,-99.99,,2013-01-31 22:42:00,
2013-01-31 14:52:00,47.0,28.0,-100.00,North,0,4.0,10.0,48,-99.99,,,-99.99,,2013-01-31 22:52:00,
2013-01-31 15:02:00,47.0,28.0,-100.00,North,0,4.0,9.0,48,-99.99,,,-99.99,,2013-01-31 23:02:00,
2013-01-31 15:12:00,47.0,28.0,-100.00,North,0,4.0,7.0,47,-99.99,,,-99.99,,2013-01-31 23:12:00,
2013-01-31 15:21:00,47.0,28.0,-100.00,North,0,4.0,7.0,47,-99.99,,,-99.99,,2013-01-31 23:21:00,
2013-01-31 15:31:00,49.0,29.0,-100.00,West,270,4.0,8.0,46,-99.99,,,-99.99,,2013-01-31 23:31:00,
2013-01-31 15:42:00,49.0,29.0,-100.00,NE,45,1.0,4.0,46,-99.99,,,-99.99,,2013-01-31 23:42:00,
2013-01-31 15:52:00,49.0,29.0,-100.00,NE,45,1.0,4.0,46,-99.99,,,-99.99,,2013-01-31 23:52:00,
2013-01-31 16:01:00,50.0,30.0,-100.00,NE,45,4.0,6.0,46,-99.99,,,-99.99,,2013-02-01 00:01:00,
2013-01-31 16:11:00,49.0,29.0,-100.00,NW,315,4.0,7.0,46,-99.99,,,-99.99,,2013-02-01 00:11:00,
2013-01-31 16:21:00,49.0,29.0,-100.00,NW,315,4.0,7.0,46,-99.99,,,-99.99,,2013-02-01 00:21:00,
2013-01-31 16:31:00,49.0,29.0,-100.00,NW,315,4.0,7.0,46,-99.99,,,-99.99,,2013-02-01 00:31:00,
2013-01-31 16:42:00,51.0,30.0,-100.00,NE,45,1.0,4.0,44,-99.99,,,-99.99,,2013-02-01 00:42:00,
2013-01-31 16:52:00,50.0,29.0,-100.00,North,0,0.0,1.0,44,-99.99,,,-99.99,,2013-02-01 00:52:00,
2013-01-31 17:01:00,50.0,29.0,-100.00,North,0,0.0,1.0,44,-99.99,,,-99.99,,2013-02-01 01:01:00,
2013-01-31 17:11:00,48.0,29.0,-100.00,North,0,2.0,4.0,47,-99.99,,,-99.99,,2013-02-01 01:11:00,
2013-01-31 17:21:00,48.0,29.0,-100.00,North,0,2.0,4.0,47,-99.99,,,-99.99,,2013-02-01 01:21:00,
2013-01-31 17:31:00,46.0,28.0,-100.00,NW,315,2.0,4.0,49,-99.99,,,-99.99,,2013-02-01 01:31:00,
2013-01-31 17:41:00,46.0,28.0,-100.00,NW,315,2.0,4.0,49,-99.99,,,-99.99,,2013-02-01 01:41:00,
2013-01-31 17:52:00,45.0,28.0,-100.00,North,0,1.0,4.0,51,-99.99,,,-99.99,,2013-02-01 01:52:00,
2013-01-31 18:01:00,45.0,28.0,-100.00,North,0,1.0,4.0,51,-99.99,,,-99.99,,2013-02-01 02:01:00,
2013-01-31 18:11:00,45.0,28.0,-100.00,North,0,1.0,1.0,52,-99.99,,,-99.99,,2013-02-01 02:11:00,
2013-01-31 18:21:00,45.0,28.0,-100.00,North,0,1.0,1.0,52,-99.99,,,-99.99,,2013-02-01 02:21:00,
2013-01-31 18:31:00,44.0,28.0,-100.00,North,0,3.0,6.0,53,-99.99,,,-99.99,,2013-02-01 02:31:00,
2013-01-31 18:41:00,43.0,28.0,-100.00,North,0,3.0,6.0,55,-99.99,,,-99.99,,2013-02-01 02:41:00,
2013-01-31 18:52:00,42.0,28.0,-100.00,NW,315,2.0,3.0,57,-99.99,,,-99.99,,2013-02-01 02:52:00,
2013-01-31 19:01:00,42.0,28.0,-100.00,NW,315,2.0,3.0,57,-99.99,,,-99.99,,2013-02-01 03:01:00,
2013-01-31 19:11:00,41.0,27.0,-100.00,East,90,0.0,2.0,58,-99.99,,,-99.99,,2013-02-01 03:11:00,
2013-01-31 19:21:00,41.0,27.0,-100.00,East,90,0.0,2.0,58,-99.99,,,-99.99,,2013-02-01 03:21:00,
2013-01-31 19:32:00,41.0,28.0,-100.00,South,180,2.0,4.0,60,-99.99,,,-99.99,,2013-02-01 03:32:00,
2013-01-31 19:41:00,41.0,28.0,-100.00,South,180,1.0,3.0,60,-99.99,,,-99.99,,2013-02-01 03:41:00,
2013-01-31 19:52:00,41.0,28.0,-100.00,South,180,1.0,3.0,60,-99.99,,,-99.99,,2013-02-01 03:52:00,
2013-01-31 20:02:00,39.0,27.0,-100.00,SW,225,3.0,3.0,62,-99.99,,,-99.99,,2013-02-01 04:02:00,
2013-01-31 20:11:00,38.0,28.0,-100.00,South,180,6.0,8.0,66,-99.99,,,-99.99,,2013-02-01 04:11:00,
2013-01-31 20:21:00,38.0,28.0,-100.00,South,180,6.0,8.0,66,-99.99,,,-99.99,,2013-02-01 04:21:00,
2013-01-31 20:31:00,37.0,28.0,-100.00,SW,225,4.0,6.0,68,-99.99,,,-99.99,,2013-02-01 04:31:00,
2013-01-31 20:41:00,36.0,27.0,-100.00,South,180,4.0,6.0,70,-99.99,,,-99.99,,2013-02-01 04:41:00,
2013-01-31 20:52:00,36.0,27.0,-100.00,South,180,4.0,6.0,70,-99.99,,,-99.99,,2013-02-01 04:52:00,
2013-01-31 21:03:00,36.0,27.0,-100.00,South,180,6.0,6.0,72,-99.99,,,-99.99,,2013-02-01 05:03:00,
2013-01-31 21:11:00,35.0,28.0,-100.00,South,180,4.0,4.0,74,-99.99,,,-99.99,,2013-02-01 05:11:00,
2013-01-31 21:22:00,35.0,28.0,-100.00,South,180,4.0,4.0,74,-99.99,,,-99.99,,2013-02-01 05:22:00,
2013-01-31 21:31:00,34.0,27.0,-100.00,SW,225,6.0,8.0,75,-99.99,,,-99.99,,2013-02-01 05:31:00,
2013-01-31 21:41:00,34.0,27.0,-100.00,SW,225,6.0,8.0,75,-99.99,,,-99.99,,2013-02-01 05:41:00,
2013-01-31 21:52:00,34.0,27.0,-100.00,SW,225,6.0,8.0,75,-99.99,,,-99.99,,2013-02-01 05:52:00,
2013-01-31 22:02:00,33.0,27.0,-100.00,South,180,6.0,9.0,76,-99.99,,,-99.99,,2013-02-01 06:02:00,
2013-01-31 22:11:00,33.0,27.0,-100.00,South,180,6.0,9.0,77,-99.99,,,-99.99,,2013-02-01 06:11:00,
2013-01-31 22:21:00,33.0,27.0,-100.00,South,180,6.0,9.0,77,-99.99,,,-99.99,,2013-02-01 06:21:00,
2013-01-31 22:32:00,33.0,27.0,-100.00,South,180,6.0,8.0,77,-99.99,,,-99.99,,2013-02-01 06:32:00,
2013-01-31 22:41:00,33.0,26.0,-100.00,South,180,7.0,9.0,77,-99.99,,,-99.99,,2013-02-01 06:41:00,
2013-01-31 22:52:00,33.0,26.0,-100.00,South,180,7.0,9.0,77,-99.99,,,-99.99,,2013-02-01 06:52:00,
2013-01-31 23:01:00,32.0,26.0,-100.00,South,180,8.0,9.0,77,-99.99,,,-99.99,,2013-02-01 07:01:00,
2013-01-31 23:12:00,32.0,26.0,-100.00,South,180,6.0,9.0,78,-99.99,,,-99.99,,2013-02-01 07:12:00,
2013-01-31 23:22:00,32.0,26.0,-100.00,South,180,6.0,9.0,78,-99.99,,,-99.99,,2013-02-01 07:22:00,
2013-01-31 23:32:00,32.0,26.0,-100.00,South,180,9.0,9.0,79,-99.99,,,-99.99,,2013-02-01 07:32:00,
2013-01-31 23:41:00,32.0,26.0,-100.00,South,180,6.0,9.0,79,-99.99,,,-99.99,,2013-02-01 07:41:00,
2013-01-31 23:52:00,32.0,26.0,-100.00,South,180,8.0,9.0,79,-99.99,,,-99.99,,2013-02-01 07:52:00,